Time;durP1;ratioP1;P1;durP2;ratioP2;P2;SDS_P1;SDS_P2;PMS_P1;PMS_P2;Temp;Humidity;BMP_temperature;BMP_pressure;BME280_temperature;BME280_humidity;BME280_pressure;Samples;Min_cycle;Max_cycle;Signal;HPM_P1;HPM_P2
2022/09/26 00:01:06;;;;;;;5.25;1.85;;;;;;;9.03;100.00;100451.59;4960109;28;20203;-46
2022/09/26 00:03:33;;;;;;;6.78;1.92;;;;;;;9.06;100.00;100452.38;4959960;28;20321;-46
2022/09/26 00:06:00;;;;;;;5.25;1.83;;;;;;;9.05;100.00;100447.06;4961063;28;20174;-46
2022/09/26 00:08:26;;;;;;;6.88;2.47;;;;;;;9.03;100.00;100439.13;4961398;28;20265;-45
2022/09/26 00:11:00;;;;;;;5.25;1.80;;;;;;;9.06;100.00;100443.50;4965000;28;20694;-46
2022/09/26 00:13:27;;;;;;;4.47;1.50;;;;;;;9.05;100.00;100434.59;4961604;28;20250;-47
2022/09/26 00:15:54;;;;;;;3.97;1.70;;;;;;;9.00;100.00;100428.53;4961162;28;20638;-47
2022/09/26 00:18:19;;;;;;;4.07;1.77;;;;;;;9.09;100.00;100430.00;4971433;28;20358;-45
2022/09/26 00:20:45;;;;;;;2.97;1.63;;;;;;;9.06;100.00;100431.00;4967716;28;20873;-47
2022/09/26 00:23:11;;;;;;;3.53;1.50;;;;;;;9.13;100.00;100428.94;4968078;28;20282;-47
2022/09/26 00:25:36;;;;;;;2.30;1.65;;;;;;;9.17;100.00;100424.38;4968628;28;20178;-44
2022/09/26 00:28:02;;;;;;;3.83;1.83;;;;;;;9.21;100.00;100421.50;4969628;28;20179;-46
2022/09/26 00:30:27;;;;;;;4.30;1.50;;;;;;;9.16;100.00;100415.50;4968018;28;20633;-47
2022/09/26 00:32:53;;;;;;;4.40;1.80;;;;;;;9.18;100.00;100421.66;4958482;28;20222;-47
2022/09/26 00:35:19;;;;;;;3.85;1.60;;;;;;;9.18;100.00;100410.06;4956815;28;20196;-46
2022/09/26 00:37:45;;;;;;;3.72;1.60;;;;;;;9.21;100.00;100408.16;4970482;28;20280;-46
2022/09/26 00:40:11;;;;;;;3.55;1.48;;;;;;;9.22;100.00;100406.34;4971454;28;20613;-46
2022/09/26 00:42:36;;;;;;;7.15;1.60;;;;;;;9.27;100.00;100404.34;4972125;28;20268;-46
2022/09/26 00:45:02;;;;;;;9.05;1.70;;;;;;;9.24;100.00;100402.66;4987641;28;20265;-44
2022/09/26 00:47:33;;;;;;;4.28;1.60;;;;;;;9.31;100.00;100395.28;4972455;28;20536;-47
2022/09/26 00:50:22;;;;;;;3.72;1.45;;;;;;;9.25;100.00;100384.84;4954866;28;20761;-44
2022/09/26 00:52:55;;;;;;;4.82;1.40;;;;;;;9.25;100.00;100384.84;4954794;28;20190;-47
2022/09/26 00:55:27;;;;;;;4.05;1.65;;;;;;;9.23;100.00;100374.22;4955724;28;20670;-48
2022/09/26 00:58:18;;;;;;;4.57;1.88;;;;;;;9.22;100.00;100371.59;4956097;28;20178;-46
2022/09/26 01:00:46;;;;;;;5.80;1.50;;;;;;;9.22;100.00;100368.91;4955228;28;20229;-45
2022/09/26 01:03:15;;;;;;;4.30;1.50;;;;;;;9.21;100.00;100361.84;4939561;28;20573;-47
2022/09/26 01:05:42;;;;;;;3.95;1.70;;;;;;;9.24;100.00;100361.72;4956832;28;20696;-46
2022/09/26 01:08:09;;;;;;;11.52;1.95;;;;;;;9.21;100.00;100352.03;4958084;28;20179;-45
2022/09/26 01:10:36;;;;;;;4.70;1.73;;;;;;;9.25;100.00;100342.09;4965831;28;20248;-46
2022/09/26 01:13:02;;;;;;;3.58;1.40;;;;;;;9.23;100.00;100330.59;4961955;28;20872;-45
2022/09/26 01:15:28;;;;;;;5.97;1.70;;;;;;;9.16;100.00;100332.63;4961674;28;20213;-46
2022/09/26 01:17:54;;;;;;;3.92;1.60;;;;;;;9.14;100.00;100321.13;4977458;28;20245;-45
2022/09/26 01:20:27;;;;;;;5.30;1.60;;;;;;;9.16;100.00;100329.06;4963967;28;20214;-46
2022/09/26 01:23:16;;;;;;;4.18;1.83;;;;;;;9.17;100.00;100322.81;4961051;28;20665;-45
2022/09/26 01:25:50;;;;;;;2.83;1.35;;;;;;;9.22;100.00;100320.81;4978347;28;20240;-45
2022/09/26 01:28:43;;;;;;;6.10;1.55;;;;;;;9.25;100.00;100326.91;4977281;28;20264;-45
2022/09/26 01:31:12;;;;;;;7.70;1.48;;;;;;;9.24;100.00;100313.59;4963151;28;20218;-47
2022/09/26 01:33:43;;;;;;;4.05;1.50;;;;;;;9.26;100.00;100314.41;4961811;28;20508;-46
2022/09/26 01:36:38;;;;;;;4.13;1.50;;;;;;;9.26;100.00;100317.94;4975755;28;20260;-47
2022/09/26 01:39:32;;;;;;;3.83;1.40;;;;;;;9.23;100.00;100312.72;4959724;28;20238;-45
2022/09/26 01:42:28;;;;;;;3.95;1.42;;;;;;;9.24;100.00;100318.94;4981468;28;20194;-44
2022/09/26 01:45:17;;;;;;;8.63;1.92;;;;;;;9.28;100.00;100309.88;4965161;28;20205;-46
2022/09/26 01:47:56;;;;;;;6.68;1.60;;;;;;;9.22;100.00;100308.31;4971164;28;20181;-45
2022/09/26 01:50:35;;;;;;;5.20;1.35;;;;;;;9.19;100.00;100299.56;4968051;28;20237;-46
2022/09/26 01:53:21;;;;;;;5.10;1.17;;;;;;;9.20;100.00;100290.59;4956172;28;20688;-47
2022/09/26 01:56:10;;;;;;;5.57;1.80;;;;;;;9.17;100.00;100296.94;4983164;28;20189;-46
2022/09/26 01:58:43;;;;;;;3.40;1.40;;;;;;;9.20;100.00;100282.56;4954258;28;20260;-47
2022/09/26 02:01:12;;;;;;;8.63;1.83;;;;;;;9.18;100.00;100285.34;4970935;28;20186;-44
2022/09/26 02:03:44;;;;;;;3.08;1.25;;;;;;;9.19;100.00;100289.72;4969131;28;20194;-46
2022/09/26 02:06:15;;;;;;;4.65;2.08;;;;;;;9.21;100.00;100273.63;4985270;28;20289;-43
2022/09/26 02:08:57;;;;;;;8.27;2.17;;;;;;;9.21;100.00;100265.63;4970885;28;20261;-45
2022/09/26 02:11:24;;;;;;;2.53;1.08;;;;;;;9.25;100.00;100268.09;4982717;28;20269;-45
2022/09/26 02:14:02;;;;;;;3.00;1.38;;;;;;;9.25;100.00;100265.44;4966593;28;20188;-46
2022/09/26 02:16:35;;;;;;;3.42;1.60;;;;;;;9.33;100.00;100259.75;4955837;28;20174;-47
2022/09/26 02:19:27;;;;;;;5.55;1.70;;;;;;;9.29;100.00;100268.81;4969832;28;20574;-45
2022/09/26 02:21:54;;;;;;;5.25;1.55;;;;;;;9.29;100.00;100260.81;4968586;28;20206;-47
2022/09/26 02:24:21;;;;;;;2.95;1.30;;;;;;;9.34;100.00;100256.16;4969479;28;20671;-47
2022/09/26 02:26:49;;;;;;;4.47;1.45;;;;;;;9.34;100.00;100256.16;4964342;28;20232;-46
2022/09/26 02:29:19;;;;;;;6.70;1.70;;;;;;;9.35;100.00;100236.47;4954804;28;20207;-48
2022/09/26 02:31:55;;;;;;;3.05;1.23;;;;;;;9.37;100.00;100237.28;4955248;28;20205;-46
2022/09/26 02:34:21;;;;;;;8.85;1.83;;;;;;;9.38;100.00;100233.69;4966827;28;20186;-44
2022/09/26 02:36:48;;;;;;;4.32;1.33;;;;;;;9.35;100.00;100223.13;4951386;28;20189;-46
2022/09/26 02:39:13;;;;;;;3.35;1.40;;;;;;;9.37;100.00;100226.59;4973497;28;20214;-45
2022/09/26 02:42:17;;;;;;;8.38;1.58;;;;;;;9.44;100.00;100220.03;4975833;28;20229;-44
2022/09/26 02:44:49;;;;;;;7.05;1.40;;;;;;;9.38;100.00;100214.97;4973697;28;20186;-46
2022/09/26 02:47:38;;;;;;;5.55;1.40;;;;;;;9.39;100.00;100211.38;4968289;28;20692;-46
2022/09/26 02:50:32;;;;;;;2.58;1.30;;;;;;;9.36;100.00;100195.47;4966544;28;20214;-46
2022/09/26 02:53:31;;;;;;;6.10;1.45;;;;;;;9.36;100.00;100198.13;4967727;28;20265;-44
2022/09/26 02:56:28;;;;;;;3.55;1.30;;;;;;;9.35;100.00;100190.19;4961135;28;20193;-44
2022/09/26 02:59:12;;;;;;;5.00;1.60;;;;;;;9.41;100.00;100196.13;4963057;28;20815;-47
2022/09/26 03:01:53;;;;;;;3.72;1.30;;;;;;;9.37;100.00;100182.97;4975395;28;20595;-47
2022/09/26 03:04:45;;;;;;;7.03;1.70;;;;;;;9.37;100.00;100178.47;4981819;28;20194;-46
2022/09/26 03:07:17;;;;;;;7.43;1.70;;;;;;;9.32;100.00;100172.47;4978774;28;20218;-46
2022/09/26 03:09:49;;;;;;;5.03;1.40;;;;;;;9.30;100.00;100163.66;4952265;28;20716;-46
2022/09/26 03:12:15;;;;;;;3.38;1.75;;;;;;;9.33;100.00;100155.47;4971408;28;20194;-47
2022/09/26 03:14:45;;;;;;;2.55;1.40;;;;;;;9.30;100.00;100152.97;4966153;28;20195;-47
2022/09/26 03:17:15;;;;;;;5.35;1.67;;;;;;;9.32;100.00;100140.41;4982012;28;20194;-46
2022/09/26 03:19:56;;;;;;;2.28;1.50;;;;;;;9.35;100.00;100142.06;4965055;28;20244;-46
2022/09/26 03:22:24;;;;;;;6.18;2.30;;;;;;;9.32;100.00;100145.75;4967531;28;20193;-45
2022/09/26 03:24:50;;;;;;;6.97;1.55;;;;;;;9.33;100.00;100142.13;4970836;28;20698;-45
2022/09/26 03:27:17;;;;;;;4.53;1.58;;;;;;;9.31;100.00;100140.44;4970297;28;20198;-45
2022/09/26 03:29:45;;;;;;;5.32;1.42;;;;;;;9.33;100.00;100139.44;4963552;28;20201;-45
2022/09/26 03:32:17;;;;;;;2.90;1.27;;;;;;;9.34;100.00;100132.31;4976072;28;20186;-47
2022/09/26 03:34:42;;;;;;;6.18;1.58;;;;;;;9.29;100.00;100129.81;4974858;28;20198;-45
2022/09/26 03:37:08;;;;;;;6.22;1.95;;;;;;;9.29;100.00;100121.78;4977847;28;20224;-47
2022/09/26 03:39:33;;;;;;;3.63;1.55;;;;;;;9.35;100.00;100109.97;4966899;28;20250;-44
2022/09/26 03:42:03;;;;;;;4.22;1.45;;;;;;;9.31;100.00;100103.88;4983723;28;20678;-43
2022/09/26 03:44:30;;;;;;;6.80;1.40;;;;;;;9.30;100.00;100110.19;4970060;28;20774;-46
2022/09/26 03:47:11;;;;;;;3.55;1.45;;;;;;;9.31;100.00;100111.91;4965995;28;20198;-46
2022/09/26 03:49:39;;;;;;;7.55;1.92;;;;;;;9.27;100.00;100103.19;4984550;28;20213;-47
2022/09/26 03:52:09;;;;;;;8.68;1.80;;;;;;;9.28;100.00;100104.03;4987013;28;20656;-49
2022/09/26 03:54:35;;;;;;;4.25;1.45;;;;;;;9.27;100.00;100094.25;4970063;28;20186;-47
2022/09/26 03:57:00;;;;;;;3.80;1.60;;;;;;;9.24;100.00;100095.28;4976357;28;20200;-45
2022/09/26 03:59:26;;;;;;;4.85;1.40;;;;;;;9.23;100.00;100090.03;4966942;28;20606;-45
2022/09/26 04:01:51;;;;;;;9.57;1.63;;;;;;;9.21;100.00;100078.53;4975057;28;20189;-46
2022/09/26 04:04:17;;;;;;;6.22;1.90;;;;;;;9.20;100.00;100080.31;4965889;28;20178;-45
2022/09/26 04:06:43;;;;;;;3.72;1.60;;;;;;;9.18;100.00;100071.53;4971052;28;20255;-47
2022/09/26 04:09:10;;;;;;;3.78;1.58;;;;;;;9.20;100.00;100071.44;4972363;28;20261;-46
2022/09/26 04:11:37;;;;;;;11.10;1.83;;;;;;;9.20;100.00;100063.41;4968889;28;20194;-45
2022/09/26 04:14:04;;;;;;;3.97;1.70;;;;;;;9.25;100.00;100059.59;4982512;28;20209;-45
2022/09/26 04:16:32;;;;;;;4.70;2.10;;;;;;;9.23;100.00;100066.81;4970569;28;20242;-47
2022/09/26 04:19:08;;;;;;;5.45;1.55;;;;;;;9.25;100.00;100064.94;4971102;28;20632;-45
2022/09/26 04:21:34;;;;;;;4.72;1.70;;;;;;;9.25;100.00;100064.94;4980795;28;20182;-45
2022/09/26 04:24:01;;;;;;;4.20;1.67;;;;;;;9.24;100.00;100052.50;4970114;28;20264;-43
2022/09/26 04:26:27;;;;;;;5.88;2.28;;;;;;;9.27;100.00;100063.09;4983989;28;20189;-43
2022/09/26 04:28:55;;;;;;;5.28;1.88;;;;;;;9.29;100.00;100057.66;4971591;28;20172;-46
2022/09/26 04:31:26;;;;;;;3.45;1.80;;;;;;;9.32;100.00;100045.97;4966272;28;20181;-45
2022/09/26 04:33:59;;;;;;;5.40;2.10;;;;;;;9.30;100.00;100047.84;4966662;28;20682;-47
2022/09/26 04:36:24;;;;;;;5.38;2.13;;;;;;;9.30;100.00;100051.38;4969009;28;20205;-45
2022/09/26 04:38:50;;;;;;;3.00;2.00;;;;;;;9.34;100.00;100036.06;4982126;28;20226;-48
2022/09/26 04:41:20;;;;;;;4.70;1.92;;;;;;;9.33;100.00;100043.19;4986070;28;20194;-46
2022/09/26 04:43:48;;;;;;;4.13;2.28;;;;;;;9.31;100.00;100045.06;4970510;28;20178;-46
2022/09/26 04:46:20;;;;;;;4.65;2.00;;;;;;;9.26;100.00;100039.94;4969634;28;20190;-45
2022/09/26 04:48:47;;;;;;;4.35;3.35;;;;;;;9.27;100.00;100022.09;4969246;28;20186;-46
2022/09/26 04:51:19;;;;;;;3.17;2.38;;;;;;;9.29;100.00;100038.94;4971441;28;20197;-45
2022/09/26 04:53:47;;;;;;;3.38;2.08;;;;;;;9.26;100.00;100029.25;4958029;28;20659;-47
2022/09/26 04:56:35;;;;;;;4.07;2.35;;;;;;;9.20;100.00;100023.31;4971037;28;20217;-47
2022/09/26 04:59:04;;;;;;;7.00;2.95;;;;;;;9.21;100.00;100025.94;4987186;28;20673;-45
2022/09/26 05:01:38;;;;;;;5.43;2.65;;;;;;;9.19;100.00;100017.13;4974877;28;20186;-47
2022/09/26 05:04:09;;;;;;;4.95;3.13;;;;;;;9.18;100.00;100020.75;4972218;28;20190;-49
2022/09/26 05:06:35;;;;;;;4.35;2.92;;;;;;;9.16;100.00;100016.38;4985817;28;20278;-49
2022/09/26 05:09:03;;;;;;;5.20;2.80;;;;;;;9.17;100.00;100024.34;4968913;28;20619;-44
2022/09/26 05:11:48;;;;;;;3.30;2.80;;;;;;;9.13;100.00;100012.03;4958342;28;20238;-49
2022/09/26 05:14:14;;;;;;;3.50;2.42;;;;;;;9.10;100.00;100004.19;4968675;28;20591;-42
2022/09/26 05:16:39;;;;;;;9.32;3.35;;;;;;;9.10;100.00;100006.00;4971595;28;20653;-47
2022/09/26 05:19:07;;;;;;;5.68;3.20;;;;;;;9.07;100.00;99997.16;4982570;28;20654;-50
2022/09/26 05:21:38;;;;;;;6.10;3.20;;;;;;;9.04;100.00;100010.66;4971595;28;20184;-45
2022/09/26 05:26:51;;;;;;;5.35;2.90;;;;;;;9.09;100.00;99983.72;4987830;28;20179;-49
2022/09/26 05:29:19;;;;;;;4.53;3.15;;;;;;;9.10;100.00;99993.50;4968003;28;20217;-47
2022/09/26 05:31:53;;;;;;;7.57;3.08;;;;;;;9.11;100.00;99991.69;4953265;28;20500;-45
2022/09/26 05:34:21;;;;;;;6.85;3.65;;;;;;;9.11;100.00;99991.69;4975959;28;20692;-47
2022/09/26 05:36:46;;;;;;;6.55;3.17;;;;;;;9.10;100.00;99993.50;4987679;28;20272;-48
2022/09/26 05:41:58;;;;;;;4.70;3.97;;;;;;;9.20;100.00;99993.91;4971016;28;20193;-45
2022/09/26 05:44:24;;;;;;;4.43;2.88;;;;;;;9.22;100.00;100000.94;4971388;28;20205;-46
2022/09/26 05:46:50;;;;;;;10.30;3.95;;;;;;;9.23;100.00;99988.44;4982566;28;20269;-44
2022/09/26 05:49:16;;;;;;;5.93;3.50;;;;;;;9.30;100.00;99997.91;4971138;28;20205;-44
2022/09/26 05:51:42;;;;;;;9.85;3.55;;;;;;;9.30;100.00;99995.25;4970812;28;20178;-42
2022/09/26 05:54:10;;;;;;;8.50;3.90;;;;;;;9.31;100.00;99982.75;4970437;28;20182;-46
2022/09/26 05:56:36;;;;;;;4.00;3.47;;;;;;;9.31;100.00;99986.28;4969910;28;20261;-48
2022/09/26 05:59:25;;;;;;;8.90;4.35;;;;;;;9.34;100.00;99990.63;4965507;28;20223;-47
2022/09/26 06:02:19;;;;;;;5.20;3.90;;;;;;;9.39;100.00;99970.75;4963801;28;20685;-47
2022/09/26 06:04:59;;;;;;;5.88;3.67;;;;;;;9.38;100.00;99973.47;4966526;28;20182;-48
2022/09/26 06:07:45;;;;;;;9.55;3.90;;;;;;;9.37;100.00;99967.28;4956733;28;20198;-49
2022/09/26 06:10:23;;;;;;;6.68;3.90;;;;;;;9.40;100.00;99968.94;4983656;28;20198;-47
2022/09/26 06:12:52;;;;;;;5.80;3.25;;;;;;;9.51;100.00;99968.44;4983636;28;20662;-47
2022/09/26 06:15:18;;;;;;;6.95;3.63;;;;;;;9.54;100.00;99958.47;4980487;28;20311;-49
2022/09/26 06:17:46;;;;;;;5.40;3.30;;;;;;;9.54;100.00;99958.47;4976078;28;20680;-48
2022/09/26 06:20:12;;;;;;;10.13;3.45;;;;;;;9.56;100.00;99953.03;4974576;28;20226;-49
2022/09/26 06:22:42;;;;;;;6.65;3.83;;;;;;;9.58;100.00;99964.53;4960837;28;20197;-46
2022/09/26 06:25:10;;;;;;;4.72;3.30;;;;;;;9.58;100.00;99960.06;4984144;28;20198;-48
2022/09/26 06:27:37;;;;;;;7.78;3.45;;;;;;;9.65;100.00;99958.81;4970130;28;20685;-47
2022/09/26 06:30:09;;;;;;;5.40;3.88;;;;;;;9.63;100.00;99943.78;4969699;28;20273;-47
2022/09/26 06:32:38;;;;;;;7.80;3.17;;;;;;;9.61;100.00;99953.69;4960997;28;20183;-47
2022/09/26 06:35:33;;;;;;;6.38;3.22;;;;;;;9.61;100.00;99942.97;4958795;28;20918;-48
2022/09/26 06:38:08;;;;;;;8.50;3.67;;;;;;;9.62;100.00;99932.22;4976491;28;20185;-47
2022/09/26 06:40:34;;;;;;;4.68;3.20;;;;;;;9.60;100.00;99935.88;4967561;28;20265;-48
2022/09/26 06:42:59;;;;;;;7.45;3.53;;;;;;;9.59;100.00;99935.03;4981098;28;20277;-48
2022/09/26 06:45:44;;;;;;;5.57;3.78;;;;;;;9.61;100.00;99921.59;4980116;28;20221;-47
2022/09/26 06:48:21;;;;;;;4.93;3.50;;;;;;;9.64;100.00;99933.00;4964667;28;20540;-47
2022/09/26 06:51:15;;;;;;;8.63;3.70;;;;;;;9.66;100.00;99916.88;4963238;28;20194;-47
2022/09/26 06:53:44;;;;;;;5.28;3.47;;;;;;;9.70;100.00;99910.44;4978957;28;20805;-47
2022/09/26 06:56:13;;;;;;;6.93;3.70;;;;;;;9.73;100.00;99914.75;4967659;28;20279;-49
2022/09/26 06:58:40;;;;;;;8.48;3.28;;;;;;;9.80;100.00;99917.06;4977913;28;20634;-47
2022/09/26 07:01:06;;;;;;;9.98;3.42;;;;;;;9.80;100.00;99917.06;4966384;28;20724;-48
2022/09/26 07:03:40;;;;;;;6.75;3.67;;;;;;;9.88;100.00;99905.97;4966693;28;20233;-47
2022/09/26 07:06:33;;;;;;;5.32;3.50;;;;;;;9.97;100.00;99901.97;4976552;28;20721;-48
2022/09/26 07:08:59;;;;;;;6.80;3.75;;;;;;;10.04;100.00;99898.91;4975746;28;20186;-48
2022/09/26 07:11:45;;;;;;;6.22;3.50;;;;;;;10.14;100.00;99899.28;4975325;28;20829;-48
2022/09/26 07:14:16;;;;;;;5.50;3.20;;;;;;;10.26;100.00;99884.44;4968100;28;20716;-47
2022/09/26 07:16:44;;;;;;;9.23;3.90;;;;;;;10.25;100.00;99898.75;4966987;28;20190;-47
2022/09/26 07:19:29;;;;;;;9.02;3.80;;;;;;;10.29;100.00;99876.25;4958546;28;20233;-47
2022/09/26 07:22:05;;;;;;;10.75;3.30;;;;;;;10.41;100.00;99885.47;4964804;28;20653;-49
2022/09/26 07:24:45;;;;;;;5.90;3.50;;;;;;;10.38;100.00;99882.94;4969848;28;20730;-49
2022/09/26 07:27:11;;;;;;;5.72;3.20;;;;;;;10.40;100.00;99892.63;4972192;28;20174;-47
2022/09/26 07:29:38;;;;;;;4.43;3.35;;;;;;;10.52;100.00;99883.09;4971704;28;20700;-47
2022/09/26 07:32:04;;;;;;;7.25;3.75;;;;;;;10.54;100.00;99888.34;4971207;28;20220;-47
2022/09/26 07:34:58;;;;;;;6.28;3.70;;;;;;;10.56;100.00;99883.78;4961221;28;20284;-48
2022/09/26 07:37:24;;;;;;;6.90;3.15;;;;;;;10.59;100.00;99899.69;4969773;28;20230;-47
2022/09/26 07:39:50;;;;;;;5.10;3.28;;;;;;;10.63;100.00;99869.97;4981038;28;20605;-47
2022/09/26 07:42:16;;;;;;;9.85;3.40;;;;;;;10.62;100.00;99878.94;4969145;28;20198;-49
2022/09/26 07:44:43;;;;;;;3.33;3.03;;;;;;;10.72;100.00;99884.69;4964371;28;20194;-49
2022/09/26 07:50:11;;;;;;;5.95;3.28;;;;;;;10.94;100.00;99871.00;4975709;28;20210;-49
2022/09/26 07:52:42;;;;;;;5.20;3.60;;;;;;;10.97;100.00;99868.13;4973554;28;20189;-48
2022/09/26 07:55:24;;;;;;;5.90;3.60;;;;;;;11.22;100.00;99882.88;4960608;28;20206;-47
2022/09/26 07:58:08;;;;;;;6.38;2.95;;;;;;;11.33;100.00;99859.00;4965091;28;20289;-47
2022/09/26 08:01:10;;;;;;;8.85;3.63;;;;;;;11.29;99.87;99869.00;4964376;28;20717;-47
2022/09/26 08:03:47;;;;;;;6.75;3.67;;;;;;;11.37;99.36;99862.34;4968788;28;20561;-48
2022/09/26 08:06:31;;;;;;;7.75;3.80;;;;;;;11.60;98.97;99864.56;4979403;28;20182;-48
2022/09/26 08:08:57;;;;;;;7.03;4.30;;;;;;;11.51;98.20;99860.59;4969810;28;20179;-46
2022/09/26 08:11:55;;;;;;;5.22;3.72;;;;;;;11.65;98.18;99861.63;4955024;28;20186;-47
2022/09/26 08:14:32;;;;;;;6.38;3.67;;;;;;;11.49;98.05;99851.78;4983286;28;20205;-49
2022/09/26 08:17:14;;;;;;;8.13;3.63;;;;;;;11.48;98.50;99847.38;4971108;28;20190;-48
2022/09/26 08:19:39;;;;;;;4.00;3.60;;;;;;;11.51;98.66;99849.88;4981308;28;20288;-49
2022/09/26 08:22:06;;;;;;;4.55;3.42;;;;;;;11.30;99.04;99853.78;4981612;28;20186;-47
2022/09/26 08:24:31;;;;;;;5.75;3.47;;;;;;;11.27;99.65;99853.97;4973118;28;20192;-48
2022/09/26 08:27:21;;;;;;;5.57;3.10;;;;;;;11.38;100.00;99858.72;4966966;28;20202;-48
2022/09/26 08:29:49;;;;;;;4.53;3.60;;;;;;;11.32;100.00;99851.88;4966640;28;20605;-48
2022/09/26 08:32:16;;;;;;;3.50;3.20;;;;;;;11.37;100.00;99859.66;4970075;28;20182;-48
2022/09/26 08:34:42;;;;;;;5.35;3.20;;;;;;;11.26;100.00;99868.31;4967936;28;20177;-47
2022/09/26 08:37:27;;;;;;;5.20;3.15;;;;;;;11.08;100.00;99860.34;4961726;28;20197;-47
2022/09/26 08:40:11;;;;;;;4.03;3.40;;;;;;;11.05;100.00;99857.84;4969337;28;20305;-49
2022/09/26 08:43:35;;;;;;;6.00;3.15;;;;;;;10.95;100.00;99859.31;4977564;28;20194;-47
2022/09/26 08:46:51;;;;;;;3.88;3.13;;;;;;;10.99;100.00;99855.50;4965021;28;20281;-47
2022/09/26 08:49:53;;;;;;;5.68;3.20;;;;;;;10.81;100.00;99856.53;4963741;28;20573;-48
2022/09/26 08:52:30;;;;;;;7.10;3.58;;;;;;;10.77;100.00;99855.84;4969187;28;20209;-47
2022/09/26 08:55:00;;;;;;;4.60;3.75;;;;;;;10.77;100.00;99860.34;4968835;28;20190;-47
2022/09/26 08:57:35;;;;;;;4.32;3.50;;;;;;;10.73;100.00;99848.91;4968462;28;20217;-48
2022/09/26 09:00:25;;;;;;;4.90;3.60;;;;;;;10.90;100.00;99851.53;4964387;28;20218;-47
2022/09/26 09:03:23;;;;;;;4.03;3.53;;;;;;;10.84;100.00;99851.00;4970670;28;20250;-47
2022/09/26 09:05:58;;;;;;;6.95;4.18;;;;;;;10.72;100.00;99842.69;4969430;28;20198;-47
2022/09/26 09:08:34;;;;;;;7.63;3.97;;;;;;;10.76;100.00;99839.81;4971360;28;20194;-47
2022/09/26 09:11:56;;;;;;;7.10;4.00;;;;;;;10.82;100.00;99836.81;4979068;28;20850;-48
2022/09/26 09:14:30;;;;;;;4.18;3.78;;;;;;;10.95;100.00;99834.31;4961723;28;20178;-49
2022/09/26 09:17:34;;;;;;;5.38;3.20;;;;;;;10.98;100.00;99823.44;4971017;28;20178;-48
2022/09/26 09:20:41;;;;;;;5.63;3.92;;;;;;;11.06;100.00;99824.75;4970971;28;20232;-47
2022/09/26 09:23:59;;;;;;;6.63;3.33;;;;;;;11.19;100.00;99819.53;4962146;28;20234;-44
2022/09/26 09:26:40;;;;;;;3.45;2.72;;;;;;;11.61;100.00;99820.72;4964428;28;20182;-43
2022/09/26 09:29:15;;;;;;;3.97;3.08;;;;;;;11.92;100.00;99816.25;4967447;28;20992;-42
2022/09/26 09:31:53;;;;;;;5.05;2.72;;;;;;;11.96;100.00;99817.78;4971377;28;20225;-43
2022/09/26 09:34:37;;;;;;;3.55;2.45;;;;;;;12.29;100.00;99819.38;4965945;28;20527;-45
2022/09/26 09:37:52;;;;;;;4.25;2.53;;;;;;;12.65;100.00;99812.66;4968770;28;20222;-43
2022/09/26 09:40:45;;;;;;;4.97;2.28;;;;;;;12.61;98.82;99811.13;4966055;28;20289;-44
2022/09/26 09:43:18;;;;;;;4.40;2.30;;;;;;;12.12;98.11;99809.66;4968531;28;20178;-42
2022/09/26 09:45:49;;;;;;;4.07;2.33;;;;;;;12.06;97.92;99793.91;4979602;28;20195;-42
2022/09/26 09:48:15;;;;;;;7.38;2.60;;;;;;;12.23;98.37;99796.44;4962354;28;20189;-42
2022/09/26 09:51:04;;;;;;;2.42;2.17;;;;;;;12.61;98.15;99795.84;4967387;28;20202;-42
2022/09/26 09:53:43;;;;;;;3.72;2.78;;;;;;;12.32;97.63;99795.84;4977045;28;20206;-41
2022/09/26 09:59:06;;;;;;;5.97;2.17;;;;;;;12.32;97.43;99795.84;5129513;23;20231;-45
2022/09/26 10:01:53;;;;;;;2.53;2.10;;;;;;;12.51;97.12;99782.16;5029325;28;20349;-43
2022/09/26 10:04:58;;;;;;;3.65;2.30;;;;;;;12.52;96.56;99797.28;5029500;28;20540;-47
2022/09/26 10:07:23;;;;;;;2.88;2.20;;;;;;;12.51;95.88;99784.84;5025445;28;20223;-45
2022/09/26 10:10:22;;;;;;;3.92;2.50;;;;;;;12.69;94.23;99790.00;5030847;28;20678;-46
2022/09/26 10:13:11;;;;;;;2.20;2.00;;;;;;;12.87;93.63;99771.81;5023086;28;20187;-43
2022/09/26 10:16:08;;;;;;;3.85;2.25;;;;;;;12.56;93.15;99777.34;5002512;28;20195;-48
2022/09/26 10:19:07;;;;;;;1.95;1.75;;;;;;;12.52;92.92;99769.56;5019652;28;20242;-51
2022/09/26 10:21:39;;;;;;;5.55;2.20;;;;;;;12.53;92.62;99777.53;5029394;28;20192;-48
2022/09/26 10:24:21;;;;;;;6.13;2.45;;;;;;;12.46;91.46;99769.94;5029597;28;20702;-45
2022/09/26 10:26:49;;;;;;;2.35;2.03;;;;;;;12.58;91.18;99774.56;5028981;28;20176;-46
2022/09/26 10:29:33;;;;;;;3.42;2.15;;;;;;;12.54;91.07;99762.28;5026178;28;20208;-43
2022/09/26 10:32:00;;;;;;;5.57;2.15;;;;;;;12.56;91.32;99745.09;5016570;28;20219;-42
2022/09/26 10:34:29;;;;;;;4.28;2.00;;;;;;;12.63;91.19;99750.94;5016136;28;20195;-43
2022/09/26 10:36:55;;;;;;;3.28;2.33;;;;;;;12.38;91.28;99753.47;5020216;28;20215;-45
2022/09/26 10:42:20;;;;;;;5.20;2.40;;;;;;;12.29;90.76;99741.47;5016015;28;20192;-44
2022/09/26 10:44:49;;;;;;;5.20;2.22;;;;;;;12.29;90.69;99747.72;5023920;28;20192;-45
2022/09/26 10:47:23;;;;;;;4.05;2.10;;;;;;;12.28;91.30;99743.28;5018898;28;20195;-44
2022/09/26 10:50:15;;;;;;;5.15;2.50;;;;;;;12.26;91.72;99745.19;5014568;28;20709;-44
2022/09/26 10:53:08;;;;;;;4.55;2.28;;;;;;;12.14;91.49;99748.66;4993541;28;20224;-43
2022/09/26 10:56:04;;;;;;;5.05;2.42;;;;;;;12.03;92.00;99735.06;5022095;28;20187;-43
2022/09/26 10:58:36;;;;;;;3.25;2.03;;;;;;;12.13;92.91;99728.13;5023949;28;20286;-42
2022/09/26 11:01:04;;;;;;;4.85;2.10;;;;;;;12.06;93.77;99726.78;5022233;28;20215;-43
2022/09/26 11:03:43;;;;;;;3.17;2.20;;;;;;;12.09;94.43;99734.66;5017678;28;20183;-43
2022/09/26 11:06:31;;;;;;;3.13;2.58;;;;;;;12.10;95.02;99722.97;5015222;28;20203;-50
2022/09/26 11:09:19;;;;;;;4.00;2.58;;;;;;;12.07;94.11;99720.44;5015703;28;20589;-43
2022/09/26 11:12:29;;;;;;;6.00;2.40;;;;;;;12.06;93.88;99716.06;5018371;28;20188;-44
2022/09/26 11:15:11;;;;;;;3.08;2.40;;;;;;;12.14;93.42;99719.13;5015150;28;20267;-43
2022/09/26 11:17:46;;;;;;;5.57;2.90;;;;;;;12.15;93.16;99715.47;5021318;28;20214;-43
2022/09/26 11:20:49;;;;;;;3.60;2.53;;;;;;;12.29;93.32;99702.06;5015441;28;20215;-46
2022/09/26 11:23:49;;;;;;;5.57;2.35;;;;;;;12.33;92.58;99684.78;5026803;28;20249;-42
2022/09/26 11:26:28;;;;;;;4.13;2.65;;;;;;;12.39;92.97;99685.34;5006842;28;20848;-44
2022/09/26 11:29:23;;;;;;;3.47;2.50;;;;;;;12.31;92.61;99692.06;5027178;28;20183;-43
2022/09/26 11:32:22;;;;;;;6.70;2.78;;;;;;;12.37;91.73;99680.06;4999818;28;20555;-42
2022/09/26 11:35:42;;;;;;;3.65;2.53;;;;;;;12.52;91.59;99678.22;4965156;28;20270;-43
2022/09/26 11:38:37;;;;;;;3.97;2.88;;;;;;;12.43;91.55;99674.31;5015427;28;20207;-45
2022/09/26 11:41:35;;;;;;;3.05;2.75;;;;;;;12.64;92.03;99661.31;5016762;28;20687;-43
2022/09/26 11:44:15;;;;;;;3.75;2.50;;;;;;;12.78;91.11;99666.63;5012350;28;20201;-42
2022/09/26 11:47:35;;;;;;;3.80;2.92;;;;;;;12.80;90.34;99661.16;5013828;28;20231;-44
2022/09/26 11:50:20;;;;;;;3.30;2.47;;;;;;;13.02;90.07;99663.28;4990445;28;20568;-44
2022/09/26 11:53:20;;;;;;;4.15;2.83;;;;;;;12.93;89.79;99653.13;5026842;28;20182;-45
2022/09/26 11:55:53;;;;;;;7.18;2.83;;;;;;;12.76;89.22;99646.19;5018237;28;20191;-43
2022/09/26 11:59:01;;;;;;;3.78;2.50;;;;;;;12.85;89.57;99663.53;5012582;28;20252;-45
2022/09/26 12:01:48;;;;;;;5.60;2.67;;;;;;;12.70;89.27;99641.22;5009697;28;20603;-42
2022/09/26 12:04:53;;;;;;;3.20;2.40;;;;;;;12.63;89.67;99634.53;5016411;28;20216;-43
2022/09/26 12:07:27;;;;;;;3.55;2.47;;;;;;;12.60;90.01;99634.75;5020977;28;20195;-43
2022/09/26 12:10:13;;;;;;;3.85;2.20;;;;;;;12.67;89.99;99631.53;5014774;28;20200;-43
2022/09/26 12:13:36;;;;;;;3.63;2.25;;;;;;;12.68;90.73;99633.28;5018395;28;20188;-43
2022/09/26 12:16:29;;;;;;;5.22;2.15;;;;;;;12.62;90.47;99627.44;4977854;28;20198;-42
2022/09/26 12:18:57;;;;;;;3.72;2.60;;;;;;;12.47;90.86;99632.00;4973663;28;20206;-43
2022/09/26 12:21:37;;;;;;;3.03;2.40;;;;;;;12.40;90.77;99625.28;5007950;28;20263;-42
2022/09/26 12:24:22;;;;;;;4.10;2.40;;;;;;;12.45;91.32;99641.97;5019113;28;20217;-43
2022/09/26 12:27:00;;;;;;;3.58;2.40;;;;;;;12.52;92.44;99622.66;5016291;28;20177;-43
2022/09/26 12:29:37;;;;;;;4.60;2.15;;;;;;;12.35;92.18;99628.25;5017582;28;20197;-46